Time;durP1;ratioP1;P1;durP2;ratioP2;P2;SDS_P1;SDS_P2;PMS_P1;PMS_P2;Temp;Humidity;BMP_temperature;BMP_pressure;BME280_temperature;BME280_humidity;BME280_pressure;Samples;Min_cycle;Max_cycle;Signal;HPM_P1;HPM_P2
2022/03/31 00:00:29;;;;;;;7.25;4.15;;;9.10;78.10;;;;;;5113893;28;20028;-81
2022/03/31 00:02:55;;;;;;;7.45;4.40;;;9.10;78.10;;;;;;5112274;28;20036;-82
2022/03/31 00:05:22;;;;;;;5.78;3.60;;;9.10;78.60;;;;;;5113570;28;20027;-81
2022/03/31 00:08:19;;;;;;;7.55;3.88;;;9.00;78.60;;;;;;5113556;28;20452;-81
2022/03/31 00:10:46;;;;;;;8.93;4.90;;;9.00;78.80;;;;;;5111162;28;20039;-81
2022/03/31 00:13:18;;;;;;;7.30;4.85;;;9.00;78.70;;;;;;5112220;28;20063;-81
2022/03/31 00:15:44;;;;;;;8.13;4.63;;;8.90;79.00;;;;;;5112177;28;20115;-81
2022/03/31 00:18:11;;;;;;;8.55;5.40;;;8.90;79.40;;;;;;5112184;28;20118;-81
2022/03/31 00:20:37;;;;;;;7.82;5.00;;;8.90;79.40;;;;;;5112281;28;20031;-81
2022/03/31 00:23:05;;;;;;;7.40;4.80;;;8.90;79.60;;;;;;5094956;28;20464;-81
2022/03/31 00:25:31;;;;;;;9.82;5.25;;;8.80;79.70;;;;;;5112369;28;20376;-81
2022/03/31 00:27:57;;;;;;;7.28;4.78;;;8.80;79.90;;;;;;5111952;28;20452;-81
2022/03/31 00:30:24;;;;;;;7.15;4.70;;;8.80;80.20;;;;;;5111718;28;20034;-81
2022/03/31 00:32:52;;;;;;;7.95;5.15;;;8.80;80.50;;;;;;5095181;28;20020;-81
2022/03/31 00:35:18;;;;;;;7.35;5.10;;;8.80;80.70;;;;;;5079149;28;20051;-81
2022/03/31 00:37:45;;;;;;;6.68;5.20;;;8.80;81.00;;;;;;5112765;28;20024;-81
2022/03/31 00:40:15;;;;;;;9.05;5.07;;;8.70;81.50;;;;;;5098485;28;20040;-81
2022/03/31 00:42:49;;;;;;;9.85;5.05;;;8.70;81.10;;;;;;5115943;28;20019;-81
2022/03/31 00:45:20;;;;;;;7.90;5.03;;;8.70;81.30;;;;;;5117192;28;20023;-81
2022/03/31 00:47:46;;;;;;;;;;;8.70;81.60;;;;;;5115664;28;20031;-80
2022/03/31 00:50:13;;;;;;;8.07;5.00;;;8.60;82.30;;;;;;5116784;28;19903;-81
2022/03/31 00:52:40;;;;;;;9.05;5.38;;;8.60;82.10;;;;;;5115826;28;20101;-81
2022/03/31 00:55:09;;;;;;;7.82;5.22;;;8.60;82.30;;;;;;5113966;28;20015;-81
2022/03/31 00:57:35;;;;;;;7.25;5.03;;;8.50;82.20;;;;;;5114290;28;20030;-81
2022/03/31 01:00:01;;;;;;;9.38;5.22;;;8.50;82.60;;;;;;5113978;28;20097;-82
2022/03/31 01:02:31;;;;;;;6.78;5.10;;;8.50;83.00;;;;;;5097422;28;20118;-81
2022/03/31 01:05:00;;;;;;;10.30;5.90;;;8.50;83.00;;;;;;5114037;28;20074;-82
2022/03/31 01:07:26;;;;;;;8.90;5.40;;;8.50;83.20;;;;;;5115393;28;20018;-81
2022/03/31 01:09:54;;;;;;;8.88;5.47;;;8.50;83.50;;;;;;5097530;28;20023;-81
2022/03/31 01:12:22;;;;;;;8.93;5.13;;;8.40;83.60;;;;;;5113463;28;20021;-81
2022/03/31 01:14:48;;;;;;;8.18;5.43;;;8.40;83.70;;;;;;5116240;28;20020;-82
2022/03/31 01:17:13;;;;;;;9.85;5.97;;;8.40;83.60;;;;;;5096774;28;20038;-81
2022/03/31 01:19:39;;;;;;;10.40;6.00;;;8.40;84.00;;;;;;5113814;28;20038;-81
2022/03/31 01:22:05;;;;;;;7.57;5.35;;;8.30;83.90;;;;;;5079815;28;20134;-81
2022/03/31 01:24:31;;;;;;;9.32;5.70;;;8.30;84.20;;;;;;5114675;28;20081;-82
2022/03/31 01:26:57;;;;;;;8.43;5.85;;;8.30;84.60;;;;;;5113096;28;20023;-83
2022/03/31 01:29:26;;;;;;;11.10;5.70;;;8.30;84.80;;;;;;5113657;28;20422;-81
2022/03/31 01:31:53;;;;;;;8.90;5.30;;;8.20;84.80;;;;;;5113365;28;20533;-81
2022/03/31 01:34:19;;;;;;;9.07;6.43;;;8.20;85.10;;;;;;5113539;28;20024;-81
2022/03/31 01:36:44;;;;;;;8.55;5.35;;;8.20;85.10;;;;;;5114850;28;20106;-81
2022/03/31 01:39:10;;;;;;;10.07;5.55;;;8.10;85.40;;;;;;5113207;28;20107;-81
2022/03/31 01:41:35;;;;;;;8.13;5.70;;;8.10;85.60;;;;;;5113503;28;20036;-81
2022/03/31 01:44:01;;;;;;;7.30;5.60;;;8.10;86.00;;;;;;5096492;28;20047;-82
2022/03/31 01:46:29;;;;;;;9.95;5.75;;;8.10;86.30;;;;;;5079843;28;20028;-82
2022/03/31 01:48:55;;;;;;;8.85;5.57;;;8.00;86.50;;;;;;5096683;28;20016;-82
2022/03/31 01:51:21;;;;;;;8.75;5.57;;;8.00;86.80;;;;;;5095212;28;20046;-82
2022/03/31 01:53:47;;;;;;;9.40;5.70;;;8.00;86.90;;;;;;5069945;28;1240345;-82
2022/03/31 01:56:13;;;;;;;9.55;5.63;;;8.00;87.20;;;;;;5115359;28;20038;-82
2022/03/31 01:58:39;;;;;;;8.05;5.15;;;8.00;87.30;;;;;;5098476;28;20062;-81
2022/03/31 02:01:04;;;;;;;8.90;5.60;;;8.00;87.50;;;;;;5097268;28;20067;-82
2022/03/31 02:03:30;;;;;;;6.80;4.40;;;8.00;87.60;;;;;;5097501;28;20024;-82
2022/03/31 02:05:56;;;;;;;6.15;4.22;;;7.90;87.80;;;;;;5121420;28;20026;-80
2022/03/31 02:08:22;;;;;;;7.85;4.00;;;7.90;88.00;;;;;;5121538;27;20012;-82
2022/03/31 02:10:49;;;;;;;6.57;4.10;;;7.90;87.90;;;;;;5104589;28;20019;-81
2022/03/31 02:13:15;;;;;;;6.05;3.70;;;7.90;88.10;;;;;;5138701;28;20016;-83
2022/03/31 02:15:41;;;;;;;7.07;3.83;;;7.90;88.20;;;;;;5121925;27;20024;-80
2022/03/31 02:18:07;;;;;;;7.05;3.63;;;7.90;88.20;;;;;;5121385;28;20007;-82
2022/03/31 02:20:34;;;;;;;6.90;3.35;;;7.80;88.00;;;;;;5127932;28;20036;-81
2022/03/31 02:23:00;;;;;;;5.38;3.00;;;7.80;88.10;;;;;;5114049;28;20077;-81
2022/03/31 02:25:27;;;;;;;4.93;2.70;;;7.80;88.30;;;;;;5113721;28;20049;-81
2022/03/31 02:27:53;;;;;;;4.97;2.80;;;7.70;88.50;;;;;;5114085;28;20035;-81
2022/03/31 02:30:21;;;;;;;4.00;2.53;;;7.70;88.40;;;;;;5096523;28;20031;-82
2022/03/31 02:32:47;;;;;;;5.13;3.00;;;7.70;88.70;;;;;;5113714;28;20447;-81
2022/03/31 02:35:13;;;;;;;4.03;2.58;;;7.60;88.60;;;;;;5113168;28;20055;-81
2022/03/31 02:37:39;;;;;;;3.53;2.30;;;7.60;88.90;;;;;;5115137;28;20110;-81
2022/03/31 02:40:06;;;;;;;3.83;2.33;;;7.60;89.30;;;;;;5096169;28;20053;-82
2022/03/31 02:42:34;;;;;;;3.35;2.30;;;7.50;89.50;;;;;;5113470;28;20085;-81
2022/03/31 02:45:00;;;;;;;2.75;2.10;;;7.50;89.40;;;;;;5080110;28;20031;-81
2022/03/31 02:47:26;;;;;;;3.03;2.30;;;7.50;89.30;;;;;;5113253;28;20110;-81
2022/03/31 02:49:52;;;;;;;3.58;2.25;;;7.50;89.40;;;;;;5113421;28;20062;-81
2022/03/31 02:52:18;;;;;;;3.45;2.33;;;7.40;89.40;;;;;;5095874;28;20047;-81
2022/03/31 02:57:28;;;;;;;2.75;2.00;;;7.40;89.60;;;;;;5098966;28;20495;-81
2022/03/31 02:59:53;;;;;;;4.38;2.20;;;7.30;89.50;;;;;;5113384;28;20020;-81
2022/03/31 03:02:19;;;;;;;2.78;1.80;;;7.30;89.70;;;;;;5078887;28;20076;-81
2022/03/31 03:04:45;;;;;;;2.58;1.60;;;7.30;89.90;;;;;;5112822;28;20032;-81
2022/03/31 03:07:10;;;;;;;2.03;1.60;;;7.20;90.00;;;;;;5112701;28;20039;-81
2022/03/31 03:09:36;;;;;;;3.25;1.90;;;7.20;90.00;;;;;;5096252;28;20111;-81
2022/03/31 03:12:03;;;;;;;1.58;1.40;;;7.20;90.00;;;;;;5095849;28;20024;-81
2022/03/31 03:14:29;;;;;;;2.20;1.80;;;7.20;90.00;;;;;;5114049;28;20383;-81
2022/03/31 03:16:55;;;;;;;2.38;1.60;;;7.10;90.20;;;;;;5114105;28;20031;-81
2022/03/31 03:19:20;;;;;;;3.20;1.50;;;7.10;90.10;;;;;;5078944;28;20028;-81
2022/03/31 03:21:46;;;;;;;1.83;1.50;;;7.10;90.20;;;;;;5095502;28;20442;-80
2022/03/31 03:24:12;;;;;;;2.58;1.60;;;7.10;90.20;;;;;;5113395;28;20031;-81
2022/03/31 03:26:37;;;;;;;1.80;1.40;;;7.10;90.10;;;;;;5112899;28;20028;-81
2022/03/31 03:29:03;;;;;;;2.08;1.55;;;7.10;90.20;;;;;;5112712;28;20028;-81
2022/03/31 03:31:29;;;;;;;2.38;1.80;;;7.00;90.30;;;;;;5112581;28;20085;-81
2022/03/31 03:33:55;;;;;;;2.47;1.55;;;7.00;90.40;;;;;;5112835;28;20023;-81
2022/03/31 03:36:20;;;;;;;2.65;1.58;;;7.00;90.50;;;;;;5112371;28;20422;-81
2022/03/31 03:38:46;;;;;;;3.05;1.67;;;7.00;90.40;;;;;;5112465;28;20020;-81
2022/03/31 03:41:13;;;;;;;2.13;1.50;;;6.90;90.60;;;;;;5095558;28;20027;-81
2022/03/31 03:43:43;;;;;;;2.10;1.50;;;6.90;90.80;;;;;;5112757;28;20035;-81
2022/03/31 03:46:09;;;;;;;2.10;1.48;;;6.90;90.80;;;;;;5112732;28;20460;-81
2022/03/31 03:48:35;;;;;;;2.22;1.42;;;6.90;91.00;;;;;;5113488;28;20533;-81
2022/03/31 03:51:01;;;;;;;2.00;1.35;;;6.80;90.90;;;;;;5113906;28;20031;-81
2022/03/31 03:53:27;;;;;;;1.48;1.27;;;6.80;90.90;;;;;;5112095;28;20044;-81
2022/03/31 03:55:53;;;;;;;1.45;1.20;;;6.80;91.10;;;;;;5096130;28;20167;-81
2022/03/31 03:58:19;;;;;;;2.17;1.38;;;6.80;91.10;;;;;;5112379;28;20027;-81
2022/03/31 04:00:44;;;;;;;1.88;1.30;;;6.80;91.20;;;;;;5095396;28;20463;-81
2022/03/31 04:03:11;;;;;;;1.75;1.27;;;6.70;91.30;;;;;;5112330;28;20032;-81
2022/03/31 04:05:38;;;;;;;2.58;1.35;;;6.70;91.40;;;;;;5113500;28;20348;-81
2022/03/31 04:08:04;;;;;;;2.67;1.20;;;6.70;91.60;;;;;;5112329;28;20459;-81
2022/03/31 04:10:29;;;;;;;1.60;1.30;;;6.70;91.60;;;;;;5111979;28;20027;-81
2022/03/31 04:12:55;;;;;;;1.88;1.35;;;6.60;91.90;;;;;;5112623;28;20464;-81
2022/03/31 04:15:21;;;;;;;2.30;1.80;;;6.60;92.10;;;;;;5099734;28;20031;-82
2022/03/31 04:17:47;;;;;;;2.22;1.38;;;6.60;92.30;;;;;;5099672;28;20110;-81
2022/03/31 04:20:13;;;;;;;2.40;1.65;;;6.60;92.20;;;;;;5117505;28;20056;-81
2022/03/31 04:22:40;;;;;;;2.05;1.65;;;6.50;92.50;;;;;;5117487;28;20028;-81
2022/03/31 04:25:07;;;;;;;3.58;1.67;;;6.50;92.60;;;;;;5116713;28;20023;-81
2022/03/31 04:27:37;;;;;;;2.13;1.50;;;6.50;92.80;;;;;;5115946;28;20020;-81
2022/03/31 04:30:05;;;;;;;2.28;1.48;;;6.40;93.00;;;;;;5099354;28;20054;-81
2022/03/31 04:32:31;;;;;;;1.88;1.63;;;6.40;93.00;;;;;;5116881;28;20023;-82
2022/03/31 04:34:57;;;;;;;2.63;1.70;;;6.40;93.10;;;;;;5116622;27;20427;-81
2022/03/31 04:37:22;;;;;;;2.83;1.85;;;6.40;93.30;;;;;;5115612;28;20189;-82
2022/03/31 04:39:48;;;;;;;2.70;1.70;;;6.40;93.70;;;;;;5115675;28;20027;-82
2022/03/31 04:42:14;;;;;;;1.98;1.40;;;6.30;93.50;;;;;;5115301;28;20031;-82
2022/03/31 04:44:39;;;;;;;1.98;1.70;;;6.30;93.60;;;;;;5081834;28;20023;-82
2022/03/31 04:47:06;;;;;;;1.63;1.20;;;6.30;93.60;;;;;;5081834;28;20028;-81
2022/03/31 04:49:33;;;;;;;1.48;1.10;;;6.30;93.60;;;;;;5098565;28;20027;-82
2022/03/31 04:51:59;;;;;;;2.38;1.13;;;6.30;93.50;;;;;;5098813;28;20456;-81
2022/03/31 04:54:25;;;;;;;1.33;1.20;;;6.30;93.60;;;;;;5115442;28;20016;-82
2022/03/31 04:56:50;;;;;;;1.40;1.05;;;6.20;93.60;;;;;;5116083;28;20468;-81
2022/03/31 04:59:16;;;;;;;1.23;1.10;;;6.30;93.50;;;;;;5097885;28;20028;-81
2022/03/31 05:01:41;;;;;;;1.30;1.10;;;6.20;93.60;;;;;;5098507;28;20039;-81
2022/03/31 05:04:09;;;;;;;1.70;1.40;;;6.20;93.50;;;;;;5098543;28;20438;-82
2022/03/31 05:06:35;;;;;;;1.38;1.20;;;6.20;93.50;;;;;;5115233;28;20035;-81
2022/03/31 05:09:01;;;;;;;1.30;1.20;;;6.20;93.50;;;;;;5115334;28;20028;-81
2022/03/31 05:11:27;;;;;;;1.27;1.10;;;6.20;93.60;;;;;;5115163;28;20030;-81
2022/03/31 05:13:52;;;;;;;2.35;1.42;;;6.10;93.70;;;;;;5115396;28;20024;-81
2022/03/31 05:16:18;;;;;;;2.22;1.30;;;6.10;93.80;;;;;;5115407;28;20031;-82
2022/03/31 05:18:45;;;;;;;1.45;1.30;;;6.10;93.80;;;;;;5098029;28;20460;-83
2022/03/31 05:21:11;;;;;;;2.55;1.63;;;6.10;94.20;;;;;;5098032;28;20031;-82
2022/03/31 05:23:37;;;;;;;1.20;1.08;;;6.10;93.90;;;;;;5081225;28;20036;-83
2022/03/31 05:26:03;;;;;;;2.20;1.60;;;6.00;94.00;;;;;;5098176;28;20058;-81
2022/03/31 05:28:30;;;;;;;2.22;1.63;;;6.00;93.80;;;;;;5099947;27;20065;-83
2022/03/31 05:30:56;;;;;;;2.63;1.80;;;5.90;94.10;;;;;;5116029;27;20015;-82
2022/03/31 05:33:21;;;;;;;2.47;1.73;;;5.90;94.10;;;;;;5098092;27;20418;-85
2022/03/31 05:35:47;;;;;;;1.85;1.45;;;5.80;94.10;;;;;;5117465;27;20047;-82
2022/03/31 05:38:13;;;;;;;3.58;1.77;;;5.80;94.30;;;;;;5106169;27;20028;-81
2022/03/31 05:40:39;;;;;;;1.70;1.27;;;5.80;94.50;;;;;;5115693;27;20027;-82
2022/03/31 05:43:04;;;;;;;2.55;1.85;;;5.70;94.80;;;;;;5115113;27;20361;-81
2022/03/31 05:45:30;;;;;;;2.55;1.77;;;5.70;95.00;;;;;;5099691;27;20023;-82
2022/03/31 05:47:56;;;;;;;2.65;1.70;;;5.70;95.20;;;;;;5101292;27;20109;-82
2022/03/31 05:50:21;;;;;;;1.80;1.50;;;5.70;95.50;;;;;;5081601;28;20468;-83
2022/03/31 05:52:47;;;;;;;2.90;1.90;;;5.70;95.80;;;;;;5098662;27;20130;-83
2022/03/31 05:55:16;;;;;;;2.65;1.80;;;5.60;95.80;;;;;;5101173;27;20023;-82
2022/03/31 05:57:42;;;;;;;2.15;1.75;;;5.60;96.20;;;;;;5115009;27;20056;-83
2022/03/31 06:00:12;;;;;;;3.03;1.70;;;5.60;96.60;;;;;;5126872;27;20023;-83
2022/03/31 06:02:39;;;;;;;3.75;1.75;;;5.50;96.70;;;;;;5116876;27;20023;-82
2022/03/31 06:05:05;;;;;;;2.50;1.75;;;5.50;96.80;;;;;;5100720;27;20051;-83
2022/03/31 06:07:31;;;;;;;2.60;1.70;;;5.40;96.90;;;;;;5096945;28;20027;-82
2022/03/31 06:09:56;;;;;;;2.30;1.77;;;5.40;97.00;;;;;;5121249;27;20026;-83
2022/03/31 06:12:22;;;;;;;2.30;1.77;;;5.40;97.10;;;;;;5121794;27;20087;-83
2022/03/31 06:14:47;;;;;;;2.67;1.95;;;5.30;97.20;;;;;;5104611;27;20035;-82
2022/03/31 06:17:13;;;;;;;4.38;1.80;;;5.30;97.40;;;;;;5103440;27;20072;-83
2022/03/31 06:19:39;;;;;;;4.45;2.00;;;5.20;97.70;;;;;;5118999;27;20091;-82
2022/03/31 06:22:05;;;;;;;3.42;2.03;;;5.20;97.80;;;;;;5124750;27;20038;-83
2022/03/31 06:24:30;;;;;;;3.13;2.20;;;5.20;98.00;;;;;;5137687;27;20027;-82
2022/03/31 06:26:57;;;;;;;3.70;1.95;;;5.20;98.10;;;;;;5104102;27;20444;-82
2022/03/31 06:29:25;;;;;;;2.78;2.13;;;5.10;98.20;;;;;;5119668;27;20080;-82
2022/03/31 06:31:53;;;;;;;2.83;1.92;;;5.20;98.50;;;;;;5102829;27;20023;-82
2022/03/31 06:34:19;;;;;;;3.42;1.80;;;5.10;98.70;;;;;;5102991;27;20015;-82
2022/03/31 06:36:45;;;;;;;2.55;1.88;;;5.10;98.80;;;;;;5101164;27;20395;-82
2022/03/31 06:39:10;;;;;;;2.83;1.80;;;5.10;99.00;;;;;;5101278;27;20031;-82
2022/03/31 06:41:36;;;;;;;3.15;1.90;;;5.10;99.00;;;;;;5118565;27;20035;-82
2022/03/31 06:44:02;;;;;;;2.38;1.90;;;5.00;99.20;;;;;;5090988;27;20039;-82
2022/03/31 06:46:28;;;;;;;3.55;2.17;;;5.00;99.30;;;;;;5086360;27;20056;-84
2022/03/31 06:48:53;;;;;;;3.70;2.15;;;5.10;99.50;;;;;;5087468;27;20031;-82
2022/03/31 06:51:19;;;;;;;2.22;1.80;;;5.00;99.80;;;;;;5093204;27;20066;-82
2022/03/31 06:53:45;;;;;;;3.15;2.17;;;5.00;99.90;;;;;;5115350;28;20031;-82
2022/03/31 06:56:14;;;;;;;3.65;2.10;;;5.00;99.90;;;;;;5138082;28;20027;-82
2022/03/31 06:58:39;;;;;;;3.03;2.20;;;4.90;99.90;;;;;;5120510;28;20129;-83
2022/03/31 07:01:05;;;;;;;2.88;1.95;;;4.90;99.90;;;;;;5120823;28;20016;-82
2022/03/31 07:03:31;;;;;;;2.70;2.10;;;4.90;99.90;;;;;;5137461;28;20019;-87
2022/03/31 07:05:57;;;;;;;4.80;2.13;;;4.90;99.90;;;;;;5120082;28;20028;-81
2022/03/31 07:08:23;;;;;;;3.15;2.38;;;4.90;99.90;;;;;;5125060;28;20034;-83
2022/03/31 07:10:49;;;;;;;3.25;2.15;;;4.90;99.90;;;;;;5125968;28;20028;-83
2022/03/31 07:13:15;;;;;;;2.53;2.00;;;4.90;99.90;;;;;;5112444;28;20024;-82
2022/03/31 07:15:41;;;;;;;3.20;2.35;;;5.00;99.90;;;;;;5124224;28;20024;-82
2022/03/31 07:18:07;;;;;;;3.88;2.10;;;4.90;99.90;;;;;;5110759;28;20028;-86
2022/03/31 07:20:34;;;;;;;13.90;3.03;;;4.90;99.90;;;;;;5104884;28;20031;-85
2022/03/31 07:22:59;;;;;;;3.42;2.28;;;5.00;99.90;;;;;;5112465;28;20026;-84
2022/03/31 07:25:25;;;;;;;8.65;2.90;;;4.90;99.90;;;;;;5093052;28;20023;-84
2022/03/31 07:27:52;;;;;;;7.35;2.80;;;4.90;99.90;;;;;;5106893;28;20089;-84
2022/03/31 07:30:19;;;;;;;5.45;2.75;;;4.90;99.90;;;;;;5086844;28;20035;-84
2022/03/31 07:32:57;;;;;;;7.43;2.40;;;5.00;99.90;;;;;;5109360;28;20023;-84
2022/03/31 07:35:24;;;;;;;3.03;2.15;;;4.90;99.90;;;;;;5111435;28;20032;-86
2022/03/31 07:37:51;;;;;;;2.97;2.08;;;5.00;99.90;;;;;;5122206;28;20132;-85
2022/03/31 07:40:18;;;;;;;3.70;2.33;;;5.00;99.90;;;;;;5101721;28;20059;-82
2022/03/31 07:42:44;;;;;;;4.05;2.90;;;5.00;99.90;;;;;;5117548;28;20012;-85
2022/03/31 07:45:11;;;;;;;5.15;2.78;;;5.00;99.90;;;;;;5133090;28;20031;-87
2022/03/31 07:47:39;;;;;;;4.63;2.95;;;5.00;99.90;;;;;;5121340;28;20195;-88
2022/03/31 07:50:09;;;;;;;4.18;2.70;;;5.00;99.90;;;;;;5139678;28;20011;-86
2022/03/31 07:52:38;;;;;;;3.42;2.30;;;5.00;99.90;;;;;;5119450;28;20055;-92
2022/03/31 07:55:06;;;;;;;3.67;2.63;;;5.00;99.90;;;;;;5086525;28;20068;-86
2022/03/31 07:57:33;;;;;;;7.07;3.38;;;5.00;99.90;;;;;;5111728;28;20020;-87
2022/03/31 07:59:59;;;;;;;4.63;2.60;;;5.00;99.90;;;;;;5094454;28;20032;-88
2022/03/31 08:02:26;;;;;;;3.40;2.50;;;5.10;99.90;;;;;;5109618;28;20044;-85
2022/03/31 08:04:55;;;;;;;3.63;2.40;;;5.10;99.90;;;;;;5111799;28;20024;-86
2022/03/31 08:07:21;;;;;;;3.45;2.35;;;5.10;99.90;;;;;;5109662;28;20092;-86
2022/03/31 08:09:47;;;;;;;4.40;2.72;;;5.10;99.90;;;;;;5097979;28;20028;-83
2022/03/31 08:12:13;;;;;;;3.53;2.47;;;5.10;99.90;;;;;;5086475;28;20028;-82
2022/03/31 08:14:39;;;;;;;3.53;2.50;;;5.10;99.90;;;;;;5056678;28;20024;-84
2022/03/31 08:17:04;;;;;;;3.33;2.40;;;5.10;99.90;;;;;;5086279;28;20024;-84
2022/03/31 08:19:32;;;;;;;3.63;2.50;;;5.10;99.90;;;;;;5086138;28;20136;-83
2022/03/31 08:22:02;;;;;;;4.47;2.60;;;5.10;99.90;;;;;;5077593;28;20029;-82
2022/03/31 08:24:28;;;;;;;4.63;2.90;;;5.10;99.90;;;;;;5078877;28;20449;-82
2022/03/31 08:26:54;;;;;;;3.38;2.50;;;5.10;99.90;;;;;;5077694;28;20112;-83
2022/03/31 08:29:20;;;;;;;3.75;2.50;;;5.10;99.90;;;;;;5060997;28;20119;-83
2022/03/31 08:31:46;;;;;;;3.20;2.40;;;5.20;99.90;;;;;;5044623;28;20036;-82
2022/03/31 08:34:12;;;;;;;3.33;2.33;;;5.20;99.90;;;;;;5076281;28;20032;-82
2022/03/31 08:36:38;;;;;;;6.03;2.65;;;5.20;99.90;;;;;;5075223;28;20024;-84
2022/03/31 08:39:05;;;;;;;3.50;2.60;;;5.20;99.90;;;;;;5058988;28;20119;-83
2022/03/31 08:41:31;;;;;;;4.93;2.63;;;5.20;99.90;;;;;;5058254;28;20118;-83
2022/03/31 08:43:57;;;;;;;4.35;2.60;;;5.20;99.90;;;;;;5075109;28;20054;-82
2022/03/31 08:46:27;;;;;;;3.40;2.33;;;5.20;99.90;;;;;;5075287;28;20017;-83
2022/03/31 08:48:53;;;;;;;4.10;2.65;;;5.20;99.90;;;;;;5076088;28;20037;-83
2022/03/31 08:51:19;;;;;;;3.42;2.58;;;5.20;99.90;;;;;;5075170;28;20082;-84
2022/03/31 08:53:44;;;;;;;4.43;2.67;;;5.20;99.90;;;;;;5093128;28;20479;-83
2022/03/31 08:56:11;;;;;;;3.33;2.60;;;5.20;99.90;;;;;;5115410;28;20433;-83
2022/03/31 08:58:36;;;;;;;3.88;2.80;;;5.20;99.90;;;;;;5115565;28;20024;-82
2022/03/31 09:01:02;;;;;;;3.42;2.55;;;5.20;99.90;;;;;;5116285;28;20392;-83
2022/03/31 09:03:36;;;;;;;3.90;2.95;;;5.20;99.90;;;;;;5115111;28;20076;-83
2022/03/31 09:06:04;;;;;;;4.07;2.95;;;5.20;99.90;;;;;;5098545;28;20054;-83
2022/03/31 09:08:30;;;;;;;3.95;2.97;;;5.20;99.90;;;;;;5116192;28;20483;-83
2022/03/31 09:11:00;;;;;;;5.63;3.22;;;5.20;99.90;;;;;;5116399;28;20030;-83
2022/03/31 09:13:38;;;;;;;3.78;3.00;;;5.20;99.90;;;;;;5098649;28;20020;-83
2022/03/31 09:16:06;;;;;;;4.32;3.17;;;5.20;99.90;;;;;;5115041;28;20352;-83
2022/03/31 09:18:34;;;;;;;5.82;3.35;;;5.20;99.90;;;;;;5114858;28;20039;-83
2022/03/31 09:21:02;;;;;;;5.53;3.25;;;5.20;99.90;;;;;;5114916;28;20392;-83
2022/03/31 09:23:29;;;;;;;4.43;3.20;;;5.20;99.90;;;;;;5116360;28;20049;-83
2022/03/31 09:26:08;;;;;;;5.15;3.53;;;5.20;99.90;;;;;;5115065;28;20031;-83
2022/03/31 09:28:34;;;;;;;4.70;3.50;;;5.20;99.90;;;;;;5099095;28;20069;-83
2022/03/31 09:31:01;;;;;;;5.13;3.50;;;5.20;99.90;;;;;;5115080;28;20061;-82
2022/03/31 09:33:39;;;;;;;9.07;3.63;;;5.20;99.90;;;;;;5114873;28;20050;-83
2022/03/31 09:36:07;;;;;;;12.45;4.65;;;5.20;99.90;;;;;;5114701;28;20031;-83
2022/03/31 09:38:37;;;;;;;6.80;4.47;;;5.20;99.90;;;;;;5114510;28;20478;-83
2022/03/31 09:41:24;;;;;;;5.60;3.67;;;5.20;99.90;;;;;;5115178;28;20058;-83
2022/03/31 09:43:51;;;;;;;6.57;3.78;;;5.20;99.90;;;;;;5114603;28;20115;-84
2022/03/31 09:46:28;;;;;;;4.90;4.00;;;5.20;99.90;;;;;;5097639;28;20028;-85
2022/03/31 09:48:57;;;;;;;6.00;3.97;;;5.20;99.90;;;;;;5113961;28;20133;-85
2022/03/31 09:51:24;;;;;;;6.43;4.30;;;5.20;99.90;;;;;;5112197;28;20446;-85
2022/03/31 09:53:54;;;;;;;7.07;4.47;;;5.20;99.90;;;;;;5114311;28;20124;-83
2022/03/31 09:56:22;;;;;;;6.00;3.80;;;5.20;99.90;;;;;;5097535;28;20027;-84
2022/03/31 09:58:48;;;;;;;5.60;4.30;;;5.20;99.90;;;;;;5114425;28;20110;-84
2022/03/31 10:01:16;;;;;;;6.13;4.15;;;5.30;99.90;;;;;;5108829;28;20457;-84
2022/03/31 10:03:42;;;;;;;10.63;4.43;;;5.30;99.90;;;;;;5097586;28;20027;-84
2022/03/31 10:06:08;;;;;;;7.72;4.35;;;5.20;99.90;;;;;;5113670;28;20069;-84
2022/03/31 10:08:39;;;;;;;6.00;4.63;;;5.30;99.90;;;;;;5088208;28;20081;-84
2022/03/31 10:11:07;;;;;;;6.47;5.13;;;5.30;99.90;;;;;;5110474;28;20031;-84
2022/03/31 10:14:14;;;;;;;10.27;5.03;;;5.30;99.90;;;;;;5088359;28;20069;-85
2022/03/31 10:16:54;;;;;;;7.93;4.82;;;5.30;99.90;;;;;;5086249;28;20032;-85
2022/03/31 10:19:32;;;;;;;12.25;5.80;;;5.30;99.90;;;;;;5114902;28;20028;-85
2022/03/31 10:22:00;;;;;;;7.95;5.47;;;5.30;99.90;;;;;;5114094;28;20077;-85
2022/03/31 10:24:41;;;;;;;7.82;5.15;;;5.30;99.90;;;;;;5118650;28;20034;-85
2022/03/31 10:27:08;;;;;;;7.10;5.18;;;5.30;99.90;;;;;;5118459;28;20020;-85
2022/03/31 10:29:42;;;;;;;8.70;4.93;;;5.30;99.90;;;;;;5102887;28;20089;-84
2022/03/31 10:32:24;;;;;;;6.35;4.80;;;5.30;99.90;;;;;;5101494;28;20024;-86
2022/03/31 10:34:53;;;;;;;7.45;5.32;;;5.30;99.90;;;;;;5116407;28;20051;-85
2022/03/31 10:37:35;;;;;;;8.68;5.80;;;5.30;99.90;;;;;;5138059;28;20468;-87
2022/03/31 10:40:04;;;;;;;8.65;5.78;;;5.40;99.90;;;;;;5137390;28;20028;-87
2022/03/31 10:42:30;;;;;;;9.10;5.50;;;5.40;99.90;;;;;;5136455;28;20033;-86
2022/03/31 10:45:12;;;;;;;9.20;6.05;;;5.40;99.90;;;;;;5134913;28;20016;-85
2022/03/31 10:47:42;;;;;;;9.88;5.93;;;5.40;99.90;;;;;;5130272;28;20031;-85
2022/03/31 10:50:11;;;;;;;8.13;5.63;;;5.50;99.90;;;;;;5117340;28;20035;-85
2022/03/31 10:52:37;;;;;;;8.18;5.63;;;5.50;99.90;;;;;;5114953;28;20093;-86
2022/03/31 10:55:11;;;;;;;7.20;4.93;;;5.50;99.90;;;;;;5097524;28;20023;-85
2022/03/31 10:57:42;;;;;;;7.20;5.20;;;5.50;99.90;;;;;;5101253;28;20039;-84
2022/03/31 11:00:09;;;;;;;;;;;5.50;99.90;;;;;;5094379;28;20578;-85
2022/03/31 11:02:40;;;;;;;5.82;4.38;;;5.40;99.90;;;;;;5099795;28;20355;-84
2022/03/31 11:05:07;;;;;;;8.90;4.40;;;5.40;99.90;;;;;;5113582;28;20008;-84
2022/03/31 11:07:33;;;;;;;5.35;4.18;;;5.40;99.90;;;;;;5089283;28;20056;-84
2022/03/31 11:10:09;;;;;;;5.88;4.65;;;5.50;99.90;;;;;;5071029;28;20473;-85
2022/03/31 11:12:36;;;;;;;5.85;4.20;;;5.50;99.90;;;;;;5104192;28;20023;-85
2022/03/31 11:15:07;;;;;;;5.30;4.25;;;5.50;99.90;;;;;;5090656;28;20036;-85
2022/03/31 11:17:34;;;;;;;6.68;4.45;;;5.50;99.90;;;;;;5113558;28;20019;-85
2022/03/31 11:20:03;;;;;;;6.20;4.30;;;5.50;99.90;;;;;;5113894;28;20545;-87
2022/03/31 11:22:30;;;;;;;6.68;4.20;;;5.50;99.90;;;;;;5096970;28;20096;-87
2022/03/31 11:25:11;;;;;;;5.97;4.38;;;5.50;99.90;;;;;;5114135;28;20034;-85
2022/03/31 11:27:39;;;;;;;5.88;4.25;;;5.50;99.90;;;;;;5113717;28;20475;-86
2022/03/31 11:30:09;;;;;;;5.82;4.22;;;5.50;99.90;;;;;;5114532;28;20131;-84
2022/03/31 11:32:36;;;;;;;5.88;4.20;;;5.50;99.90;;;;;;5092790;28;20059;-85
2022/03/31 11:35:08;;;;;;;5.75;3.85;;;5.50;99.90;;;;;;5091945;28;20515;-86
2022/03/31 11:37:34;;;;;;;5.85;3.80;;;5.50;99.90;;;;;;5092504;28;20384;-85
2022/03/31 11:39:59;;;;;;;6.10;4.00;;;5.50;99.90;;;;;;5092885;28;20032;-86
2022/03/31 11:42:25;;;;;;;6.00;4.07;;;5.60;99.90;;;;;;5093751;28;20126;-85
2022/03/31 11:44:51;;;;;;;5.70;4.28;;;5.60;99.90;;;;;;5093180;28;20080;-86
2022/03/31 11:47:22;;;;;;;5.18;3.80;;;5.60;99.90;;;;;;5093527;28;20020;-85
2022/03/31 11:49:58;;;;;;;;;;;5.50;99.90;;;;;;5094523;28;20048;-85
2022/03/31 11:52:32;;;;;;;9.82;3.90;;;5.60;99.90;;;;;;5104539;28;19923;-86
2022/03/31 11:55:00;;;;;;;8.70;4.00;;;5.60;99.90;;;;;;5115691;28;20412;-85
2022/03/31 11:57:28;;;;;;;8.05;4.00;;;5.60;99.90;;;;;;5114291;28;20024;-85
2022/03/31 11:59:54;;;;;;;5.82;3.70;;;5.60;99.90;;;;;;5096823;28;20371;-87
2022/03/31 12:02:21;;;;;;;6.18;4.07;;;5.60;99.90;;;;;;5115223;28;20051;-86
2022/03/31 12:04:48;;;;;;;6.50;3.97;;;5.60;99.90;;;;;;5114410;28;20024;-85
2022/03/31 12:07:14;;;;;;;7.97;4.80;;;5.60;99.90;;;;;;5115913;28;20523;-85
2022/03/31 12:09:42;;;;;;;7.43;4.40;;;5.60;99.90;;;;;;5112544;28;20026;-85
2022/03/31 12:12:13;;;;;;;6.40;4.18;;;5.60;99.90;;;;;;5112040;28;20036;-85
2022/03/31 12:14:51;;;;;;;7.65;3.95;;;5.60;99.90;;;;;;5095709;28;20024;-86
2022/03/31 12:17:18;;;;;;;5.72;4.00;;;5.60;99.90;;;;;;5112761;28;20051;-86
2022/03/31 12:19:44;;;;;;;5.65;3.65;;;5.60;99.90;;;;;;5114392;28;20023;-86
2022/03/31 12:22:10;;;;;;;5.25;3.33;;;5.60;99.90;;;;;;5111869;28;20448;-85
2022/03/31 12:24:49;;;;;;;5.10;3.72;;;5.60;99.90;;;;;;5112414;28;20048;-85
2022/03/31 12:27:19;;;;;;;5.13;3.60;;;5.60;99.90;;;;;;5111991;28;20019;-86
2022/03/31 12:29:45;;;;;;;4.82;3.35;;;5.60;99.90;;;;;;5112712;28;20024;-85
2022/03/31 12:32:14;;;;;;;6.10;4.00;;;5.60;99.90;;;;;;5113785;28;20031;-86
2022/03/31 12:34:53;;;;;;;5.57;3.40;;;5.60;99.90;;;;;;5097159;28;20075;-85
2022/03/31 12:37:30;;;;;;;4.57;3.28;;;5.60;99.90;;;;;;5117957;28;20460;-85
2022/03/31 12:39:59;;;;;;;5.10;3.55;;;5.60;99.90;;;;;;5106657;28;20022;-87
2022/03/31 12:42:26;;;;;;;4.53;2.92;;;5.60;99.90;;;;;;5116130;28;20106;-87
2022/03/31 12:44:51;;;;;;;4.07;2.88;;;5.60;99.90;;;;;;5119919;28;20015;-86
2022/03/31 12:47:23;;;;;;;3.97;3.08;;;5.60;99.90;;;;;;5119178;28;20026;-86
2022/03/31 12:49:50;;;;;;;4.35;3.08;;;5.60;99.90;;;;;;5116502;28;20076;-88
2022/03/31 12:52:20;;;;;;;4.43;2.60;;;5.60;99.90;;;;;;5114206;28;20108;-91
2022/03/31 12:54:46;;;;;;;4.53;2.70;;;5.60;99.90;;;;;;5104087;28;20023;-86
2022/03/31 12:57:21;;;;;;;3.38;2.45;;;5.50;99.90;;;;;;5104393;28;20085;-86
2022/03/31 13:00:04;;;;;;;3.63;2.42;;;5.50;99.90;;;;;;5104387;28;20372;-85
2022/03/31 13:02:36;;;;;;;3.80;2.50;;;5.50;99.90;;;;;;5104234;28;20115;-87